Time;durP1;ratioP1;P1;durP2;ratioP2;P2;SDS_P1;SDS_P2;PMS_P1;PMS_P2;Temp;Humidity;BMP_temperature;BMP_pressure;BME280_temperature;BME280_humidity;BME280_pressure;Samples;Min_cycle;Max_cycle;Signal;HPM_P1;HPM_P2
2021/10/24 00:01:51;;;;;;;4.27;3.87;;;;;;;;;;4970857;28;20187;-62
2021/10/24 00:04:17;;;;;;;5.57;4.23;;;;;;;;;;4980141;28;20191;-61
2021/10/24 00:06:48;;;;;;;4.60;3.80;;;;;;;;;;4989328;28;20537;-61
2021/10/24 00:09:14;;;;;;;4.73;4.00;;;;;;;;;;4994132;28;20184;-62
2021/10/24 00:11:40;;;;;;;5.00;3.87;;;;;;;;;;4985274;28;20262;-62
2021/10/24 00:14:07;;;;;;;5.17;3.63;;;;;;;;;;4971373;28;20190;-62
2021/10/24 00:16:33;;;;;;;5.90;4.40;;;;;;;;;;4974673;28;20220;-62
2021/10/24 00:19:00;;;;;;;6.77;3.87;;;;;;;;;;5005583;28;20645;-61
2021/10/24 00:21:26;;;;;;;5.47;4.07;;;;;;;;;;4979662;28;20628;-61
2021/10/24 00:23:58;;;;;;;6.90;4.33;;;;;;;;;;5002267;28;20297;-63
2021/10/24 00:26:25;;;;;;;5.03;4.00;;;;;;;;;;4980145;28;20177;-62
2021/10/24 00:28:51;;;;;;;4.40;3.73;;;;;;;;;;4979822;28;20531;-62
2021/10/24 00:31:17;;;;;;;4.13;3.80;;;;;;;;;;4960190;28;20232;-61
2021/10/24 00:33:43;;;;;;;4.07;3.67;;;;;;;;;;4986662;28;20292;-63
2021/10/24 00:36:09;;;;;;;4.23;3.80;;;;;;;;;;4981961;28;20653;-62
2021/10/24 00:38:36;;;;;;;4.77;4.27;;;;;;;;;;4988353;28;20684;-62
2021/10/24 00:41:02;;;;;;;4.70;4.07;;;;;;;;;;4981336;28;20191;-61
2021/10/24 00:43:30;;;;;;;4.40;3.80;;;;;;;;;;4987530;28;20222;-63
2021/10/24 00:45:56;;;;;;;4.47;3.57;;;;;;;;;;4967710;28;20183;-63
2021/10/24 00:48:28;;;;;;;5.43;4.13;;;;;;;;;;4988884;28;20745;-62
2021/10/24 00:50:55;;;;;;;3.70;3.40;;;;;;;;;;4985991;28;20180;-62
2021/10/24 00:53:21;;;;;;;4.83;4.33;;;;;;;;;;4970379;28;20666;-62
2021/10/24 00:55:47;;;;;;;5.07;3.60;;;;;;;;;;4963041;28;20194;-62
2021/10/24 00:58:16;;;;;;;5.00;4.10;;;;;;;;;;4998835;28;20685;-62
2021/10/24 01:00:42;;;;;;;4.27;3.87;;;;;;;;;;4987549;28;20183;-62
2021/10/24 01:03:08;;;;;;;4.87;3.33;;;;;;;;;;4971960;28;20222;-63
2021/10/24 01:05:36;;;;;;;5.30;4.23;;;;;;;;;;4995213;28;20205;-62
2021/10/24 01:08:03;;;;;;;5.03;4.37;;;;;;;;;;4970398;28;20254;-61
2021/10/24 01:10:29;;;;;;;5.67;4.00;;;;;;;;;;4959563;28;20212;-62
2021/10/24 01:12:55;;;;;;;5.47;3.70;;;;;;;;;;4987875;28;20195;-62
2021/10/24 01:15:23;;;;;;;3.97;3.57;;;;;;;;;;4951737;28;20237;-61
2021/10/24 01:17:50;;;;;;;4.83;3.37;;;;;;;;;;4967507;28;20211;-61
2021/10/24 01:20:17;;;;;;;5.80;3.90;;;;;;;;;;4970781;28;20183;-63
2021/10/24 01:22:43;;;;;;;6.87;4.03;;;;;;;;;;4980608;28;20186;-62
2021/10/24 01:25:19;;;;;;;3.37;3.07;;;;;;;;;;4966375;28;20267;-63
2021/10/24 01:27:46;;;;;;;3.80;3.17;;;;;;;;;;4983765;28;20829;-63
2021/10/24 01:30:13;;;;;;;5.50;5.00;;;;;;;;;;4960561;28;20268;-62
2021/10/24 01:32:41;;;;;;;4.70;3.70;;;;;;;;;;4997105;28;20361;-63
2021/10/24 01:35:09;;;;;;;4.43;3.63;;;;;;;;;;4984158;28;20693;-62
2021/10/24 01:37:37;;;;;;;3.97;3.60;;;;;;;;;;4966910;28;20190;-61
2021/10/24 01:40:05;;;;;;;4.47;3.30;;;;;;;;;;4980576;28;20183;-61
2021/10/24 01:42:31;;;;;;;5.53;3.33;;;;;;;;;;4959931;28;20327;-62
2021/10/24 01:44:58;;;;;;;4.40;3.97;;;;;;;;;;4985925;28;20190;-62
2021/10/24 01:47:24;;;;;;;6.37;3.80;;;;;;;;;;4994236;28;20233;-63
2021/10/24 01:49:53;;;;;;;4.63;3.73;;;;;;;;;;4971044;28;20186;-62
2021/10/24 01:52:19;;;;;;;4.17;3.40;;;;;;;;;;4963101;28;20207;-63
2021/10/24 01:54:45;;;;;;;4.33;3.37;;;;;;;;;;4968684;28;20183;-61
2021/10/24 01:57:11;;;;;;;3.03;2.73;;;;;;;;;;4995204;28;20189;-62
2021/10/24 01:59:41;;;;;;;5.73;3.97;;;;;;;;;;4954612;28;20295;-62
2021/10/24 02:02:11;;;;;;;3.87;3.50;;;;;;;;;;4972000;28;20195;-62
2021/10/24 02:04:37;;;;;;;4.13;3.73;;;;;;;;;;4968873;28;20297;-62
2021/10/24 02:07:03;;;;;;;5.23;3.33;;;;;;;;;;4974534;28;21654;-62
2021/10/24 02:09:29;;;;;;;3.97;3.10;;;;;;;;;;4965170;28;20558;-62
2021/10/24 02:11:55;;;;;;;4.40;4.00;;;;;;;;;;4964348;28;20195;-61
2021/10/24 02:14:21;;;;;;;4.13;3.73;;;;;;;;;;4984962;28;20265;-61
2021/10/24 02:16:48;;;;;;;3.57;3.17;;;;;;;;;;4991873;28;20183;-61
2021/10/24 02:19:14;;;;;;;3.80;3.40;;;;;;;;;;4999879;28;20670;-62
2021/10/24 02:21:40;;;;;;;3.53;3.23;;;;;;;;;;4972157;28;20202;-62
2021/10/24 02:24:06;;;;;;;3.87;3.47;;;;;;;;;;4962244;28;20548;-61
2021/10/24 02:26:32;;;;;;;4.23;3.43;;;;;;;;;;4984005;28;20655;-60
2021/10/24 02:29:01;;;;;;;3.63;3.33;;;;;;;;;;4991929;28;20589;-61
2021/10/24 02:31:36;;;;;;;4.53;3.63;;;;;;;;;;4998507;28;20703;-62
2021/10/24 02:34:03;;;;;;;4.70;3.20;;;;;;;;;;4965852;28;20678;-62
2021/10/24 02:36:29;;;;;;;3.30;3.00;;;;;;;;;;4952092;28;20190;-63
2021/10/24 02:38:55;;;;;;;5.93;3.40;;;;;;;;;;4943972;28;20572;-62
2021/10/24 02:41:22;;;;;;;5.57;3.60;;;;;;;;;;4950875;28;20191;-62
2021/10/24 02:43:48;;;;;;;3.83;3.43;;;;;;;;;;4961930;28;20271;-61
2021/10/24 02:46:14;;;;;;;4.70;3.33;;;;;;;;;;4956905;28;20203;-61
2021/10/24 02:48:41;;;;;;;3.37;3.07;;;;;;;;;;4955222;28;20210;-60
2021/10/24 02:51:13;;;;;;;5.53;3.63;;;;;;;;;;4965514;28;20662;-60
2021/10/24 02:53:39;;;;;;;6.17;3.50;;;;;;;;;;4945638;28;20176;-62
2021/10/24 02:56:05;;;;;;;4.03;3.20;;;;;;;;;;4968249;28;20184;-63
2021/10/24 02:58:31;;;;;;;4.67;3.60;;;;;;;;;;4955039;28;20199;-63
2021/10/24 03:00:58;;;;;;;3.93;3.40;;;;;;;;;;4944831;28;20179;-62
2021/10/24 03:03:32;;;;;;;6.93;3.67;;;;;;;;;;4970917;28;20283;-63
2021/10/24 03:05:59;;;;;;;3.47;2.77;;;;;;;;;;4961700;28;20242;-62
2021/10/24 03:08:25;;;;;;;4.47;3.17;;;;;;;;;;4967233;28;20189;-63
2021/10/24 03:10:51;;;;;;;4.93;3.40;;;;;;;;;;4967405;28;20218;-62
2021/10/24 03:13:18;;;;;;;4.10;3.70;;;;;;;;;;4952348;28;20203;-62
2021/10/24 03:15:47;;;;;;;3.17;2.87;;;;;;;;;;4940270;28;20634;-62
2021/10/24 03:18:13;;;;;;;3.87;3.57;;;;;;;;;;4954320;28;20350;-61
2021/10/24 03:20:39;;;;;;;7.13;4.10;;;;;;;;;;4946777;28;20287;-62
2021/10/24 03:23:05;;;;;;;5.03;3.53;;;;;;;;;;4971580;28;20434;-64
2021/10/24 03:25:34;;;;;;;3.97;3.33;;;;;;;;;;4969983;28;20619;-62
2021/10/24 03:28:00;;;;;;;3.43;2.90;;;;;;;;;;4950727;28;20221;-63
2021/10/24 03:30:26;;;;;;;4.27;3.20;;;;;;;;;;4951068;28;20219;-63
2021/10/24 03:32:56;;;;;;;3.87;3.47;;;;;;;;;;4964173;28;20215;-61
2021/10/24 03:35:22;;;;;;;3.93;3.03;;;;;;;;;;4992984;28;20671;-62
2021/10/24 03:37:49;;;;;;;3.67;2.93;;;;;;;;;;5002979;28;20533;-63
2021/10/24 03:40:15;;;;;;;4.57;4.17;;;;;;;;;;4966619;28;20191;-62
2021/10/24 03:42:41;;;;;;;3.77;3.10;;;;;;;;;;4997795;28;20605;-63
2021/10/24 03:45:08;;;;;;;4.07;3.40;;;;;;;;;;4986352;28;20182;-63
2021/10/24 03:47:34;;;;;;;4.63;2.93;;;;;;;;;;4985824;28;20207;-62
2021/10/24 03:50:00;;;;;;;3.47;3.17;;;;;;;;;;4969755;28;20183;-62
2021/10/24 03:52:26;;;;;;;3.20;2.90;;;;;;;;;;5001693;28;20190;-62
2021/10/24 03:54:55;;;;;;;3.57;3.27;;;;;;;;;;4977562;28;20570;-62
2021/10/24 03:57:21;;;;;;;3.50;2.63;;;;;;;;;;4982319;28;20682;-62
2021/10/24 03:59:47;;;;;;;3.40;2.93;;;;;;;;;;4982250;28;20297;-62
2021/10/24 04:02:14;;;;;;;4.03;3.70;;;;;;;;;;4996689;28;20200;-62
2021/10/24 04:04:41;;;;;;;4.17;3.00;;;;;;;;;;4966619;28;20289;-62
2021/10/24 04:07:08;;;;;;;3.50;3.20;;;;;;;;;;4996123;28;20175;-62
2021/10/24 04:09:34;;;;;;;4.40;4.00;;;;;;;;;;4981670;28;20199;-61
2021/10/24 04:12:00;;;;;;;3.43;3.13;;;;;;;;;;4989965;28;20201;-62
2021/10/24 04:14:26;;;;;;;3.00;2.73;;;;;;;;;;4972209;28;20191;-62
2021/10/24 04:16:55;;;;;;;3.87;3.10;;;;;;;;;;4967762;28;20175;-62
2021/10/24 04:19:21;;;;;;;4.27;3.07;;;;;;;;;;4990012;28;20205;-63
2021/10/24 04:21:48;;;;;;;2.97;2.60;;;;;;;;;;4974837;28;20171;-63
2021/10/24 04:24:14;;;;;;;3.23;2.97;;;;;;;;;;4978965;28;20179;-62
2021/10/24 04:26:40;;;;;;;5.87;3.83;;;;;;;;;;4961839;28;20179;-63
2021/10/24 04:29:06;;;;;;;4.37;3.60;;;;;;;;;;4964575;28;20270;-64
2021/10/24 04:31:39;;;;;;;3.50;3.20;;;;;;;;;;4959753;28;20199;-62
2021/10/24 04:34:05;;;;;;;3.97;3.03;;;;;;;;;;4990735;28;20303;-65
2021/10/24 04:36:31;;;;;;;3.37;3.07;;;;;;;;;;4979854;28;20187;-63
2021/10/24 04:39:01;;;;;;;3.87;3.20;;;;;;;;;;4973138;28;20213;-63
2021/10/24 04:41:30;;;;;;;3.30;3.00;;;;;;;;;;4984553;28;20248;-63
2021/10/24 04:43:56;;;;;;;3.17;2.87;;;;;;;;;;4975415;28;20188;-61
2021/10/24 04:46:23;;;;;;;3.50;3.20;;;;;;;;;;4969083;28;20639;-61
2021/10/24 04:48:50;;;;;;;3.57;3.17;;;;;;;;;;4991127;28;20210;-61
2021/10/24 04:51:16;;;;;;;3.37;3.00;;;;;;;;;;4970022;28;20190;-64
2021/10/24 04:53:45;;;;;;;3.40;3.10;;;;;;;;;;4976526;28;20547;-62
2021/10/24 04:56:11;;;;;;;5.80;3.30;;;;;;;;;;4986324;28;20187;-62
2021/10/24 04:58:37;;;;;;;4.77;3.00;;;;;;;;;;4973166;28;20306;-63
2021/10/24 05:01:09;;;;;;;3.30;3.00;;;;;;;;;;4970144;28;20175;-62
2021/10/24 05:03:36;;;;;;;3.70;3.10;;;;;;;;;;4959582;28;20193;-62
2021/10/24 05:06:02;;;;;;;3.77;3.20;;;;;;;;;;4995518;28;20172;-64
2021/10/24 05:08:37;;;;;;;3.80;3.40;;;;;;;;;;4988623;28;20541;-62
2021/10/24 05:11:03;;;;;;;3.63;3.30;;;;;;;;;;4961253;28;20187;-63
2021/10/24 05:13:29;;;;;;;3.23;2.93;;;;;;;;;;4978806;28;20922;-62
2021/10/24 05:15:55;;;;;;;6.87;3.90;;;;;;;;;;4965615;28;20214;-62
2021/10/24 05:18:21;;;;;;;3.37;2.97;;;;;;;;;;4988684;28;20202;-61
2021/10/24 05:20:48;;;;;;;3.70;3.30;;;;;;;;;;4979035;28;20606;-65
2021/10/24 05:23:14;;;;;;;5.27;3.13;;;;;;;;;;4970521;28;20437;-61
2021/10/24 05:25:40;;;;;;;4.13;3.20;;;;;;;;;;4986403;28;20182;-62
2021/10/24 05:28:12;;;;;;;3.60;3.30;;;;;;;;;;4992636;28;20187;-62
2021/10/24 05:30:39;;;;;;;3.20;2.90;;;;;;;;;;4967687;28;20432;-62
2021/10/24 05:33:08;;;;;;;3.40;3.03;;;;;;;;;;4980424;28;20745;-61
2021/10/24 05:35:34;;;;;;;3.13;2.80;;;;;;;;;;4975395;28;20258;-62
2021/10/24 05:38:00;;;;;;;5.37;3.33;;;;;;;;;;4972051;28;20614;-63
2021/10/24 05:40:26;;;;;;;3.30;2.90;;;;;;;;;;4988010;28;20238;-63
2021/10/24 05:42:52;;;;;;;3.40;3.10;;;;;;;;;;4986293;28;20270;-62
2021/10/24 05:45:18;;;;;;;3.30;3.00;;;;;;;;;;4967998;28;20176;-63
2021/10/24 05:47:48;;;;;;;3.00;2.67;;;;;;;;;;4966972;28;20544;-62
2021/10/24 05:50:14;;;;;;;3.70;3.40;;;;;;;;;;4961353;28;20187;-62
2021/10/24 05:52:40;;;;;;;4.07;2.93;;;;;;;;;;4982093;28;20175;-61
2021/10/24 05:55:06;;;;;;;2.97;2.67;;;;;;;;;;4955065;28;20261;-61
2021/10/24 05:57:41;;;;;;;4.17;3.57;;;;;;;;;;5003464;28;20217;-61
2021/10/24 06:00:11;;;;;;;2.87;2.60;;;;;;;;;;4985111;28;20192;-61
2021/10/24 06:02:37;;;;;;;3.07;2.63;;;;;;;;;;4988238;28;20611;-61
2021/10/24 06:05:03;;;;;;;3.50;2.63;;;;;;;;;;4967245;28;20184;-62
2021/10/24 06:07:33;;;;;;;3.43;3.03;;;;;;;;;;4965667;28;20179;-62
2021/10/24 06:10:12;;;;;;;3.20;2.90;;;;;;;;;;4986595;28;20546;-61
2021/10/24 06:15:05;;;;;;;3.27;2.97;;;;;;;;;;4968957;28;20188;-63
2021/10/24 06:17:32;;;;;;;3.00;2.70;;;;;;;;;;4985723;28;20183;-62
2021/10/24 06:19:58;;;;;;;3.67;3.10;;;;;;;;;;4969969;28;20373;-61
2021/10/24 06:22:26;;;;;;;3.60;3.00;;;;;;;;;;4990597;28;20179;-62
2021/10/24 06:24:52;;;;;;;3.97;2.80;;;;;;;;;;4964185;28;20183;-63
2021/10/24 06:27:18;;;;;;;3.60;3.10;;;;;;;;;;5004344;28;20548;-61
2021/10/24 06:29:44;;;;;;;3.20;2.83;;;;;;;;;;4977732;28;20663;-62
2021/10/24 06:32:10;;;;;;;3.30;2.80;;;;;;;;;;4989366;28;20292;-62
2021/10/24 06:34:47;;;;;;;3.07;2.70;;;;;;;;;;4975932;28;20691;-62
2021/10/24 06:37:17;;;;;;;4.40;2.93;;;;;;;;;;4969572;28;20318;-65
2021/10/24 06:39:44;;;;;;;3.50;3.20;;;;;;;;;;4955886;28;20733;-62
2021/10/24 06:42:10;;;;;;;4.20;2.73;;;;;;;;;;4972493;28;20179;-63
2021/10/24 06:44:37;;;;;;;4.10;3.10;;;;;;;;;;4957955;28;20267;-61
2021/10/24 06:47:03;;;;;;;3.20;2.90;;;;;;;;;;4976119;28;21033;-61
2021/10/24 06:49:33;;;;;;;3.33;3.03;;;;;;;;;;4982561;28;20187;-62
2021/10/24 06:52:05;;;;;;;3.83;3.17;;;;;;;;;;4985523;28;20183;-62
2021/10/24 06:54:40;;;;;;;4.70;3.10;;;;;;;;;;4961101;28;20180;-63
2021/10/24 06:57:06;;;;;;;3.53;3.13;;;;;;;;;;4968108;28;20183;-62
2021/10/24 06:59:43;;;;;;;;;;;;;;;;;;;;;
2021/10/24 07:02:09;;;;;;;4.87;3.03;;;;;;;;;;4985412;28;20595;-62
2021/10/24 07:04:45;;;;;;;4.17;3.30;;;;;;;;;;4958462;28;20180;-63
2021/10/24 07:07:11;;;;;;;4.07;3.20;;;;;;;;;;4970555;28;20194;-61
2021/10/24 07:09:38;;;;;;;5.27;3.30;;;;;;;;;;4971793;28;20278;-61
2021/10/24 07:12:07;;;;;;;3.60;3.30;;;;;;;;;;4990525;28;20182;-61
2021/10/24 07:14:36;;;;;;;3.27;2.90;;;;;;;;;;4961388;28;20231;-62
2021/10/24 07:17:03;;;;;;;4.70;3.10;;;;;;;;;;4962193;28;20194;-62
2021/10/24 07:19:32;;;;;;;3.73;3.20;;;;;;;;;;4963409;28;20253;-62
2021/10/24 07:22:13;;;;;;;3.83;3.43;;;;;;;;;;4970198;28;20238;-62
2021/10/24 07:24:40;;;;;;;4.10;3.10;;;;;;;;;;4971623;28;20265;-62
2021/10/24 07:27:06;;;;;;;4.07;3.47;;;;;;;;;;4964601;28;20266;-62
2021/10/24 07:29:33;;;;;;;3.53;3.23;;;;;;;;;;4960470;28;20215;-62
2021/10/24 07:31:59;;;;;;;3.40;3.10;;;;;;;;;;4986734;28;20729;-61
2021/10/24 07:34:28;;;;;;;4.50;3.80;;;;;;;;;;4988996;28;20238;-62
2021/10/24 07:37:00;;;;;;;4.33;3.27;;;;;;;;;;4995891;28;20229;-63
2021/10/24 07:39:27;;;;;;;4.37;3.40;;;;;;;;;;4980856;28;20215;-61
2021/10/24 07:41:56;;;;;;;3.83;3.50;;;;;;;;;;4978156;28;20198;-61
2021/10/24 07:44:28;;;;;;;3.93;3.37;;;;;;;;;;4967981;28;20188;-62
2021/10/24 07:46:56;;;;;;;4.07;3.33;;;;;;;;;;4972077;28;20175;-60
2021/10/24 07:49:22;;;;;;;6.97;3.53;;;;;;;;;;4989006;28;20650;-61
2021/10/24 07:51:49;;;;;;;5.97;3.47;;;;;;;;;;4978027;28;20182;-61
2021/10/24 07:54:15;;;;;;;5.27;3.53;;;;;;;;;;4976669;28;20195;-63
2021/10/24 07:56:41;;;;;;;3.90;3.03;;;;;;;;;;4967898;28;20184;-61
2021/10/24 07:59:07;;;;;;;4.40;3.73;;;;;;;;;;4970947;28;20202;-62
2021/10/24 08:01:37;;;;;;;3.87;3.47;;;;;;;;;;5002849;28;20188;-61
2021/10/24 08:04:04;;;;;;;4.33;3.17;;;;;;;;;;4992102;28;20179;-61
2021/10/24 08:06:34;;;;;;;3.50;2.90;;;;;;;;;;4964090;28;20183;-62
2021/10/24 08:09:04;;;;;;;4.60;3.33;;;;;;;;;;4981106;28;20187;-62
2021/10/24 08:11:30;;;;;;;4.20;3.30;;;;;;;;;;4971129;28;20283;-62
2021/10/24 08:13:56;;;;;;;4.60;3.63;;;;;;;;;;4985573;28;20377;-62
2021/10/24 08:16:22;;;;;;;4.23;3.53;;;;;;;;;;4961723;28;20183;-61
2021/10/24 08:18:48;;;;;;;6.23;3.37;;;;;;;;;;4963862;28;20217;-62
2021/10/24 08:21:15;;;;;;;5.80;3.00;;;;;;;;;;5000091;28;20234;-62
2021/10/24 08:23:41;;;;;;;5.87;3.20;;;;;;;;;;4996002;28;20190;-62
2021/10/24 08:26:07;;;;;;;4.97;3.53;;;;;;;;;;4990231;28;20205;-63
2021/10/24 08:28:33;;;;;;;3.10;2.60;;;;;;;;;;4984656;28;20262;-63
2021/10/24 08:30:59;;;;;;;4.20;3.10;;;;;;;;;;4988179;28;20238;-63
2021/10/24 08:33:28;;;;;;;4.13;3.33;;;;;;;;;;4971229;28;20219;-61
2021/10/24 08:35:55;;;;;;;6.83;3.20;;;;;;;;;;4982379;28;20188;-61
2021/10/24 08:38:21;;;;;;;6.20;3.20;;;;;;;;;;4999225;28;20199;-62
2021/10/24 08:40:47;;;;;;;4.83;2.83;;;;;;;;;;4985654;28;20277;-62
2021/10/24 08:43:16;;;;;;;5.00;3.07;;;;;;;;;;5003615;28;20191;-61
2021/10/24 08:45:42;;;;;;;5.23;2.40;;;;;;;;;;4995291;28;20190;-62
2021/10/24 08:48:09;;;;;;;4.80;2.77;;;;;;;;;;5005524;28;20241;-62
2021/10/24 08:50:35;;;;;;;4.83;3.10;;;;;;;;;;4996996;28;20190;-61
2021/10/24 08:53:03;;;;;;;5.50;3.17;;;;;;;;;;4989774;28;20264;-61
2021/10/24 08:55:36;;;;;;;4.13;2.70;;;;;;;;;;4984698;28;20269;-61
2021/10/24 08:58:03;;;;;;;3.23;2.90;;;;;;;;;;5000102;28;20186;-61
2021/10/24 09:00:30;;;;;;;3.93;3.23;;;;;;;;;;4983763;28;20186;-61
2021/10/24 09:02:56;;;;;;;5.73;3.00;;;;;;;;;;4973993;28;20195;-61
2021/10/24 09:05:33;;;;;;;9.57;3.03;;;;;;;;;;4966317;28;20238;-63
2021/10/24 09:08:00;;;;;;;3.37;2.43;;;;;;;;;;4979901;28;20183;-61
2021/10/24 09:10:49;;;;;;;4.83;2.83;;;;;;;;;;4969848;28;20599;-62
2021/10/24 09:13:20;;;;;;;4.60;2.70;;;;;;;;;;4975040;28;20218;-60
2021/10/24 09:15:52;;;;;;;3.80;2.80;;;;;;;;;;4970952;28;20179;-61
2021/10/24 09:18:20;;;;;;;4.87;2.53;;;;;;;;;;4974107;28;20202;-62
2021/10/24 09:20:47;;;;;;;5.50;2.90;;;;;;;;;;4982727;28;20618;-62
2021/10/24 09:23:14;;;;;;;6.07;2.90;;;;;;;;;;4969547;28;20179;-61
2021/10/24 09:25:50;;;;;;;5.83;2.77;;;;;;;;;;4978780;28;20202;-60
2021/10/24 09:28:19;;;;;;;6.67;2.97;;;;;;;;;;4974230;28;20309;-60
2021/10/24 09:30:46;;;;;;;6.07;2.73;;;;;;;;;;4979853;28;20201;-60
2021/10/24 09:33:14;;;;;;;4.07;2.73;;;;;;;;;;4977013;28;20731;-61
2021/10/24 09:35:48;;;;;;;4.63;2.70;;;;;;;;;;5003909;28;20269;-61
2021/10/24 09:38:16;;;;;;;4.07;2.60;;;;;;;;;;5000008;28;20206;-61
2021/10/24 09:40:46;;;;;;;4.90;3.30;;;;;;;;;;4990857;28;20679;-61
2021/10/24 09:43:19;;;;;;;3.63;3.20;;;;;;;;;;4971395;28;20218;-61
2021/10/24 09:45:48;;;;;;;4.90;3.50;;;;;;;;;;4970238;28;20176;-60
2021/10/24 09:48:15;;;;;;;5.00;3.30;;;;;;;;;;4963438;28;20667;-60
2021/10/24 09:50:46;;;;;;;4.13;3.10;;;;;;;;;;4960948;28;20205;-61
2021/10/24 09:53:14;;;;;;;4.87;2.87;;;;;;;;;;4991105;28;20638;-61
2021/10/24 09:55:42;;;;;;;5.87;3.30;;;;;;;;;;4966097;28;20187;-60
2021/10/24 09:58:12;;;;;;;7.20;2.83;;;;;;;;;;4986719;28;20187;-61
2021/10/24 10:00:38;;;;;;;4.07;2.83;;;;;;;;;;4969455;28;20179;-61
2021/10/24 10:03:05;;;;;;;4.77;3.07;;;;;;;;;;4964019;28;20265;-61
2021/10/24 10:05:34;;;;;;;4.73;2.73;;;;;;;;;;4970185;28;20545;-59
2021/10/24 10:08:01;;;;;;;4.77;2.70;;;;;;;;;;4985558;28;20190;-60
2021/10/24 10:10:37;;;;;;;6.23;3.00;;;;;;;;;;4994232;28;20680;-60
2021/10/24 10:13:09;;;;;;;3.67;2.90;;;;;;;;;;4980319;28;20189;-60
2021/10/24 10:15:39;;;;;;;3.57;2.67;;;;;;;;;;4969470;28;20195;-60
2021/10/24 10:18:05;;;;;;;3.30;2.80;;;;;;;;;;4984783;28;20193;-62
2021/10/24 10:20:35;;;;;;;4.87;2.53;;;;;;;;;;4996129;28;20657;-61
2021/10/24 10:23:03;;;;;;;3.23;2.43;;;;;;;;;;4994937;28;20190;-61
2021/10/24 10:25:30;;;;;;;5.53;2.77;;;;;;;;;;4971093;28;20362;-61
2021/10/24 10:27:58;;;;;;;6.13;3.23;;;;;;;;;;4989026;28;20656;-61
2021/10/24 10:30:42;;;;;;;3.40;2.43;;;;;;;;;;4959013;28;20235;-62
2021/10/24 10:33:28;;;;;;;3.40;2.63;;;;;;;;;;5001082;28;20262;-61
2021/10/24 10:35:55;;;;;;;4.60;2.43;;;;;;;;;;4985528;28;20197;-60
2021/10/24 10:38:38;;;;;;;4.03;2.70;;;;;;;;;;4982533;28;20792;-60
2021/10/24 10:41:05;;;;;;;2.83;2.57;;;;;;;;;;4957914;28;20191;-61
2021/10/24 10:43:34;;;;;;;4.67;3.03;;;;;;;;;;4989596;28;20242;-61
2021/10/24 10:46:04;;;;;;;5.40;3.33;;;;;;;;;;4973144;28;20261;-60
2021/10/24 10:48:39;;;;;;;3.13;2.60;;;;;;;;;;4979909;28;20187;-61
2021/10/24 10:51:18;;;;;;;3.87;3.03;;;;;;;;;;4968462;28;20222;-62
2021/10/24 10:53:47;;;;;;;4.40;3.13;;;;;;;;;;4983370;28;20219;-61
2021/10/24 10:56:13;;;;;;;5.47;2.93;;;;;;;;;;4974054;28;20302;-60
2021/10/24 10:58:43;;;;;;;6.43;3.43;;;;;;;;;;4978306;28;20213;-61
2021/10/24 11:01:26;;;;;;;5.03;2.70;;;;;;;;;;4970850;28;20277;-61
2021/10/24 11:04:12;;;;;;;4.23;2.40;;;;;;;;;;4988456;28;20190;-61
2021/10/24 11:06:46;;;;;;;5.67;2.90;;;;;;;;;;4989874;28;20657;-61
2021/10/24 11:09:35;;;;;;;3.87;2.70;;;;;;;;;;4975722;28;20210;-61
2021/10/24 11:12:08;;;;;;;3.40;2.93;;;;;;;;;;4984606;28;20295;-62
2021/10/24 11:14:41;;;;;;;3.07;2.43;;;;;;;;;;4973408;28;20547;-61
2021/10/24 11:17:07;;;;;;;5.23;3.10;;;;;;;;;;4967258;28;20290;-61
2021/10/24 11:19:54;;;;;;;4.57;3.00;;;;;;;;;;4966120;28;20202;-61
2021/10/24 11:22:31;;;;;;;5.80;2.50;;;;;;;;;;4978247;28;20326;-61
2021/10/24 11:25:01;;;;;;;4.00;2.23;;;;;;;;;;4957689;28;20266;-62
2021/10/24 11:27:27;;;;;;;5.50;2.60;;;;;;;;;;4962445;28;20219;-62
2021/10/24 11:29:55;;;;;;;4.03;2.80;;;;;;;;;;4965410;28;20194;-62
2021/10/24 11:32:34;;;;;;;3.53;3.03;;;;;;;;;;4979853;28;20232;-62
2021/10/24 11:35:03;;;;;;;3.57;2.63;;;;;;;;;;4947350;28;20349;-62
2021/10/24 11:37:47;;;;;;;5.23;2.60;;;;;;;;;;4944598;28;20577;-62
2021/10/24 11:40:17;;;;;;;2.90;2.60;;;;;;;;;;4953917;28;20192;-62
2021/10/24 11:42:55;;;;;;;4.17;2.63;;;;;;;;;;4950371;28;20613;-62
2021/10/24 11:45:22;;;;;;;3.43;2.30;;;;;;;;;;4948056;28;20567;-61
2021/10/24 11:48:05;;;;;;;4.03;2.50;;;;;;;;;;4951080;28;20195;-62
2021/10/24 11:50:44;;;;;;;4.00;2.57;;;;;;;;;;4979599;28;20235;-62
2021/10/24 11:53:11;;;;;;;4.13;2.53;;;;;;;;;;4944259;28;20597;-62
2021/10/24 11:55:40;;;;;;;4.20;2.33;;;;;;;;;;4962083;28;20239;-61
2021/10/24 12:01:02;;;;;;;3.80;2.70;;;;;;;;;;4964137;28;20610;-62
2021/10/24 12:03:30;;;;;;;5.17;3.37;;;;;;;;;;4969437;28;20650;-61
2021/10/24 12:05:57;;;;;;;2.90;2.53;;;;;;;;;;4968290;28;20187;-64
2021/10/24 12:08:39;;;;;;;3.03;2.53;;;;;;;;;;4974466;28;20183;-58
2021/10/24 12:11:06;;;;;;;2.80;2.23;;;;;;;;;;4949825;28;20212;-62
2021/10/24 12:13:36;;;;;;;4.57;2.40;;;;;;;;;;4951274;28;20184;-64
2021/10/24 12:16:06;;;;;;;7.27;2.83;;;;;;;;;;4943267;28;20431;-63
2021/10/24 12:18:40;;;;;;;5.23;2.57;;;;;;;;;;4950356;28;20298;-63
2021/10/24 12:21:14;;;;;;;2.77;2.40;;;;;;;;;;4951381;28;20227;-64
2021/10/24 12:23:40;;;;;;;2.70;2.30;;;;;;;;;;4948251;28;20206;-64
2021/10/24 12:26:09;;;;;;;2.53;2.33;;;;;;;;;;4952748;28;20196;-63
2021/10/24 12:28:40;;;;;;;3.63;2.67;;;;;;;;;;4947959;28;20532;-64
2021/10/24 12:31:19;;;;;;;5.23;2.70;;;;;;;;;;4968217;28;20210;-64
2021/10/24 12:33:46;;;;;;;2.70;2.50;;;;;;;;;;4956509;28;20569;-64
2021/10/24 12:36:13;;;;;;;4.30;2.90;;;;;;;;;;4982232;28;20550;-64
2021/10/24 12:38:50;;;;;;;3.40;2.60;;;;;;;;;;4977044;28;20203;-64
2021/10/24 12:41:18;;;;;;;3.77;2.60;;;;;;;;;;4981567;28;20463;-68
2021/10/24 12:43:48;;;;;;;4.13;2.63;;;;;;;;;;4996590;28;20265;-66
2021/10/24 12:46:15;;;;;;;3.47;2.30;;;;;;;;;;4990956;28;20305;-66
2021/10/24 12:48:43;;;;;;;2.30;2.10;;;;;;;;;;4974475;28;20179;-64
2021/10/24 12:51:29;;;;;;;2.93;2.17;;;;;;;;;;4993401;28;20193;-64
2021/10/24 12:53:56;;;;;;;5.13;2.17;;;;;;;;;;4979154;28;20269;-63
2021/10/24 12:56:22;;;;;;;4.83;2.90;;;;;;;;;;4968529;28;20191;-64
2021/10/24 12:58:49;;;;;;;3.87;2.37;;;;;;;;;;4971766;28;20203;-64
2021/10/24 13:01:25;;;;;;;4.50;2.30;;;;;;;;;;4986669;28;20171;-65
2021/10/24 13:03:52;;;;;;;2.60;2.00;;;;;;;;;;4986513;28;20241;-65
2021/10/24 13:06:18;;;;;;;4.37;2.30;;;;;;;;;;4971445;28;20282;-65
2021/10/24 13:08:53;;;;;;;4.37;2.50;;;;;;;;;;4964239;28;20282;-65
2021/10/24 13:11:35;;;;;;;2.60;2.30;;;;;;;;;;4989710;28;20664;-64
2021/10/24 13:14:01;;;;;;;5.53;2.70;;;;;;;;;;4965255;28;20526;-61
2021/10/24 13:16:35;;;;;;;3.23;2.73;;;;;;;;;;4987965;28;20217;-60
2021/10/24 13:19:01;;;;;;;4.93;2.60;;;;;;;;;;4969766;28;20309;-61
2021/10/24 13:24:10;;;;;;;5.90;3.30;;;;;;;;;;4992867;28;20759;-64
2021/10/24 13:26:37;;;;;;;4.53;2.53;;;;;;;;;;4971721;28;20193;-64
2021/10/24 13:29:06;;;;;;;3.57;2.60;;;;;;;;;;4986664;28;20244;-64
2021/10/24 13:31:32;;;;;;;4.93;2.67;;;;;;;;;;4966799;28;20668;-63
2021/10/24 13:33:59;;;;;;;5.40;2.60;;;;;;;;;;4952971;28;20672;-62
2021/10/24 13:36:26;;;;;;;3.87;2.80;;;;;;;;;;4946083;28;20354;-65
2021/10/24 13:38:52;;;;;;;5.63;2.77;;;;;;;;;;4943730;28;20235;-65
2021/10/24 13:41:19;;;;;;;7.22;2.97;;;;;;;;;;4940027;28;20977;-62
2021/10/24 13:43:47;;;;;;;6.10;3.60;;;;;;;;;;4968108;28;20432;-65
2021/10/24 13:46:14;;;;;;;4.82;3.50;;;;;;;;;;4944026;28;20468;-69
2021/10/24 13:48:41;;;;;;;4.10;3.40;;;;;;;;;;4962881;28;20411;-63
2021/10/24 13:51:07;;;;;;;5.10;3.00;;;;;;;;;;4964161;28;20193;-65
2021/10/24 13:53:33;;;;;;;3.30;2.60;;;;;;;;;;4950750;28;20181;-66
2021/10/24 13:56:00;;;;;;;5.20;2.77;;;;;;;;;;4961856;28;20560;-66
2021/10/24 13:58:27;;;;;;;4.77;2.60;;;;;;;;;;4947371;28;20719;-66
2021/10/24 14:00:53;;;;;;;4.27;2.70;;;;;;;;;;4949129;28;20197;-66
2021/10/24 14:03:20;;;;;;;4.30;3.90;;;;;;;;;;4965087;28;20187;-66
2021/10/24 14:05:49;;;;;;;3.40;2.60;;;;;;;;;;4943277;28;20182;-66
2021/10/24 14:08:16;;;;;;;7.00;2.93;;;;;;;;;;4944394;28;20169;-67
2021/10/24 14:10:49;;;;;;;3.60;2.80;;;;;;;;;;4966923;28;20207;-67
2021/10/24 14:13:24;;;;;;;4.07;2.60;;;;;;;;;;4946095;28;20164;-65
2021/10/24 14:15:51;;;;;;;4.33;2.20;;;;;;;;;;4942122;28;20169;-67
2021/10/24 14:18:20;;;;;;;2.50;2.30;;;;;;;;;;4967882;28;20194;-67
2021/10/24 14:20:52;;;;;;;2.93;2.13;;;;;;;;;;4953610;28;20625;-65
2021/10/24 14:23:18;;;;;;;9.80;4.67;;;;;;;;;;4980978;28;20184;-66
2021/10/24 14:25:50;;;;;;;18.03;4.97;;;;;;;;;;4940386;28;20178;-66
2021/10/24 14:28:16;;;;;;;17.53;6.33;;;;;;;;;;4966938;28;20168;-66
2021/10/24 14:30:42;;;;;;;12.60;4.07;;;;;;;;;;4966087;28;20208;-65
2021/10/24 14:33:09;;;;;;;9.60;4.00;;;;;;;;;;4978282;28;20220;-66
2021/10/24 14:35:35;;;;;;;10.10;4.37;;;;;;;;;;4994333;28;20569;-66
2021/10/24 14:38:01;;;;;;;14.53;3.77;;;;;;;;;;4994838;28;20258;-66
2021/10/24 14:40:30;;;;;;;10.73;3.60;;;;;;;;;;4995385;28;20210;-65
2021/10/24 14:42:57;;;;;;;8.87;3.97;;;;;;;;;;4991060;28;20562;-66
2021/10/24 14:45:24;;;;;;;4.83;3.10;;;;;;;;;;4982943;28;20187;-65
2021/10/24 14:47:50;;;;;;;7.20;3.30;;;;;;;;;;4991468;28;20179;-65
2021/10/24 14:50:16;;;;;;;7.60;3.10;;;;;;;;;;4988913;28;20471;-65
2021/10/24 14:52:43;;;;;;;4.70;3.37;;;;;;;;;;4994446;28;20524;-65
2021/10/24 14:55:09;;;;;;;6.93;3.20;;;;;;;;;;4992820;28;20418;-65
2021/10/24 14:57:35;;;;;;;4.43;2.20;;;;;;;;;;4978474;28;20602;-65
2021/10/24 15:00:02;;;;;;;3.27;2.53;;;;;;;;;;4992586;28;20286;-64